sensor_id;sensor_type;location;lat;lon;timestamp;P1;durP1;ratioP1;P2;durP2;ratioP2
72209;SDS011;60113;48.762;12.302;2024-01-30T00:01:35;108.22;;;46.20;;
72209;SDS011;60113;48.762;12.302;2024-01-30T00:04:02;116.30;;;47.92;;
72209;SDS011;60113;48.762;12.302;2024-01-30T00:06:29;124.45;;;49.92;;
72209;SDS011;60113;48.762;12.302;2024-01-30T00:08:56;129.35;;;50.72;;
72209;SDS011;60113;48.762;12.302;2024-01-30T00:11:22;138.82;;;55.10;;
72209;SDS011;60113;48.762;12.302;2024-01-30T00:13:49;156.68;;;54.85;;
72209;SDS011;60113;48.762;12.302;2024-01-30T00:16:22;145.93;;;52.05;;
72209;SDS011;60113;48.762;12.302;2024-01-30T00:18:49;139.23;;;49.50;;
72209;SDS011;60113;48.762;12.302;2024-01-30T00:21:17;149.00;;;52.33;;
72209;SDS011;60113;48.762;12.302;2024-01-30T00:23:44;160.98;;;52.03;;
72209;SDS011;60113;48.762;12.302;2024-01-30T00:26:09;142.93;;;49.63;;
72209;SDS011;60113;48.762;12.302;2024-01-30T00:28:35;134.95;;;45.92;;
72209;SDS011;60113;48.762;12.302;2024-01-30T00:31:01;136.10;;;46.00;;
72209;SDS011;60113;48.762;12.302;2024-01-30T00:33:27;139.20;;;45.55;;
72209;SDS011;60113;48.762;12.302;2024-01-30T00:35:53;124.97;;;43.53;;
72209;SDS011;60113;48.762;12.302;2024-01-30T00:38:18;124.47;;;44.72;;
72209;SDS011;60113;48.762;12.302;2024-01-30T00:40:45;116.68;;;40.92;;
72209;SDS011;60113;48.762;12.302;2024-01-30T00:43:11;117.55;;;39.13;;
72209;SDS011;60113;48.762;12.302;2024-01-30T00:45:37;120.70;;;37.08;;
72209;SDS011;60113;48.762;12.302;2024-01-30T00:48:02;122.53;;;38.20;;
72209;SDS011;60113;48.762;12.302;2024-01-30T00:50:28;110.07;;;38.75;;
72209;SDS011;60113;48.762;12.302;2024-01-30T00:52:54;130.27;;;41.03;;
72209;SDS011;60113;48.762;12.302;2024-01-30T00:55:20;139.15;;;43.92;;
72209;SDS011;60113;48.762;12.302;2024-01-30T00:57:46;135.68;;;41.47;;
72209;SDS011;60113;48.762;12.302;2024-01-30T01:00:12;130.68;;;41.45;;
72209;SDS011;60113;48.762;12.302;2024-01-30T01:02:41;123.63;;;44.30;;
72209;SDS011;60113;48.762;12.302;2024-01-30T01:05:07;120.75;;;43.67;;
72209;SDS011;60113;48.762;12.302;2024-01-30T01:07:34;125.50;;;41.78;;
72209;SDS011;60113;48.762;12.302;2024-01-30T01:09:59;122.93;;;40.85;;
72209;SDS011;60113;48.762;12.302;2024-01-30T01:12:25;142.77;;;43.97;;
72209;SDS011;60113;48.762;12.302;2024-01-30T01:14:51;132.27;;;44.22;;
72209;SDS011;60113;48.762;12.302;2024-01-30T01:17:17;141.13;;;45.58;;
72209;SDS011;60113;48.762;12.302;2024-01-30T01:19:44;133.88;;;46.53;;
72209;SDS011;60113;48.762;12.302;2024-01-30T01:22:09;148.43;;;47.95;;
72209;SDS011;60113;48.762;12.302;2024-01-30T01:24:35;162.10;;;53.53;;
72209;SDS011;60113;48.762;12.302;2024-01-30T01:27:01;159.80;;;54.22;;
72209;SDS011;60113;48.762;12.302;2024-01-30T01:29:27;151.52;;;51.05;;
72209;SDS011;60113;48.762;12.302;2024-01-30T01:31:55;159.40;;;50.35;;
72209;SDS011;60113;48.762;12.302;2024-01-30T01:34:22;191.45;;;56.15;;
72209;SDS011;60113;48.762;12.302;2024-01-30T01:36:48;180.80;;;55.28;;
72209;SDS011;60113;48.762;12.302;2024-01-30T01:39:14;182.55;;;53.55;;
72209;SDS011;60113;48.762;12.302;2024-01-30T01:41:40;182.45;;;53.83;;
72209;SDS011;60113;48.762;12.302;2024-01-30T01:44:07;160.75;;;48.85;;
72209;SDS011;60113;48.762;12.302;2024-01-30T01:46:33;140.80;;;46.42;;
72209;SDS011;60113;48.762;12.302;2024-01-30T01:49:00;126.72;;;41.85;;
72209;SDS011;60113;48.762;12.302;2024-01-30T01:51:28;109.50;;;40.55;;
72209;SDS011;60113;48.762;12.302;2024-01-30T01:53:55;112.63;;;41.03;;
72209;SDS011;60113;48.762;12.302;2024-01-30T01:56:21;137.23;;;44.20;;
72209;SDS011;60113;48.762;12.302;2024-01-30T01:58:48;131.27;;;42.42;;
72209;SDS011;60113;48.762;12.302;2024-01-30T02:01:16;140.52;;;44.28;;
72209;SDS011;60113;48.762;12.302;2024-01-30T02:03:46;159.68;;;51.35;;
72209;SDS011;60113;48.762;12.302;2024-01-30T02:06:13;159.85;;;50.13;;
72209;SDS011;60113;48.762;12.302;2024-01-30T02:08:40;167.15;;;52.38;;
72209;SDS011;60113;48.762;12.302;2024-01-30T02:11:07;162.38;;;50.17;;
72209;SDS011;60113;48.762;12.302;2024-01-30T02:13:33;165.07;;;50.88;;
72209;SDS011;60113;48.762;12.302;2024-01-30T02:15:59;158.48;;;49.17;;
72209;SDS011;60113;48.762;12.302;2024-01-30T02:18:25;142.60;;;47.85;;
72209;SDS011;60113;48.762;12.302;2024-01-30T02:20:52;160.25;;;49.00;;
72209;SDS011;60113;48.762;12.302;2024-01-30T02:23:20;151.13;;;47.35;;
72209;SDS011;60113;48.762;12.302;2024-01-30T02:25:49;161.98;;;50.50;;
72209;SDS011;60113;48.762;12.302;2024-01-30T02:28:15;158.85;;;49.28;;
72209;SDS011;60113;48.762;12.302;2024-01-30T02:30:44;164.27;;;50.45;;
72209;SDS011;60113;48.762;12.302;2024-01-30T02:33:10;155.95;;;48.80;;
72209;SDS011;60113;48.762;12.302;2024-01-30T02:35:38;155.05;;;47.83;;
72209;SDS011;60113;48.762;12.302;2024-01-30T02:38:04;154.68;;;48.00;;
72209;SDS011;60113;48.762;12.302;2024-01-30T02:40:30;136.93;;;45.47;;
72209;SDS011;60113;48.762;12.302;2024-01-30T02:42:57;133.43;;;44.83;;
72209;SDS011;60113;48.762;12.302;2024-01-30T02:45:24;135.88;;;45.55;;
72209;SDS011;60113;48.762;12.302;2024-01-30T02:47:50;145.68;;;46.25;;
72209;SDS011;60113;48.762;12.302;2024-01-30T02:50:17;147.60;;;46.70;;
72209;SDS011;60113;48.762;12.302;2024-01-30T02:52:45;160.68;;;47.88;;
72209;SDS011;60113;48.762;12.302;2024-01-30T02:55:11;148.25;;;46.83;;
72209;SDS011;60113;48.762;12.302;2024-01-30T02:57:38;158.20;;;48.42;;
72209;SDS011;60113;48.762;12.302;2024-01-30T03:00:04;164.02;;;50.30;;
72209;SDS011;60113;48.762;12.302;2024-01-30T03:02:31;157.82;;;52.35;;
72209;SDS011;60113;48.762;12.302;2024-01-30T03:04:57;168.65;;;52.35;;
72209;SDS011;60113;48.762;12.302;2024-01-30T03:07:23;161.30;;;51.10;;
72209;SDS011;60113;48.762;12.302;2024-01-30T03:09:49;166.15;;;53.58;;
72209;SDS011;60113;48.762;12.302;2024-01-30T03:12:14;160.93;;;51.10;;
72209;SDS011;60113;48.762;12.302;2024-01-30T03:14:40;160.68;;;50.00;;
72209;SDS011;60113;48.762;12.302;2024-01-30T03:17:06;153.30;;;50.42;;
72209;SDS011;60113;48.762;12.302;2024-01-30T03:19:33;172.95;;;49.75;;
72209;SDS011;60113;48.762;12.302;2024-01-30T03:21:58;193.02;;;59.38;;
72209;SDS011;60113;48.762;12.302;2024-01-30T03:24:24;173.07;;;54.58;;
72209;SDS011;60113;48.762;12.302;2024-01-30T03:26:49;196.60;;;58.90;;
72209;SDS011;60113;48.762;12.302;2024-01-30T03:29:15;197.50;;;57.47;;
72209;SDS011;60113;48.762;12.302;2024-01-30T03:31:40;208.70;;;63.35;;
72209;SDS011;60113;48.762;12.302;2024-01-30T03:34:06;204.13;;;61.38;;
72209;SDS011;60113;48.762;12.302;2024-01-30T03:36:32;186.75;;;57.70;;
72209;SDS011;60113;48.762;12.302;2024-01-30T03:39:00;189.35;;;57.42;;
72209;SDS011;60113;48.762;12.302;2024-01-30T03:41:26;175.68;;;57.17;;
72209;SDS011;60113;48.762;12.302;2024-01-30T03:43:51;169.60;;;53.05;;
72209;SDS011;60113;48.762;12.302;2024-01-30T03:46:17;157.20;;;51.97;;
72209;SDS011;60113;48.762;12.302;2024-01-30T03:48:44;162.52;;;53.28;;
72209;SDS011;60113;48.762;12.302;2024-01-30T03:51:10;169.00;;;52.85;;
72209;SDS011;60113;48.762;12.302;2024-01-30T03:53:40;167.23;;;51.67;;
72209;SDS011;60113;48.762;12.302;2024-01-30T03:56:07;180.38;;;53.10;;
72209;SDS011;60113;48.762;12.302;2024-01-30T03:58:33;179.48;;;54.50;;
72209;SDS011;60113;48.762;12.302;2024-01-30T04:00:59;198.10;;;59.15;;
72209;SDS011;60113;48.762;12.302;2024-01-30T04:03:24;200.85;;;58.35;;
72209;SDS011;60113;48.762;12.302;2024-01-30T04:05:51;200.10;;;59.75;;
72209;SDS011;60113;48.762;12.302;2024-01-30T04:08:17;189.43;;;58.92;;
72209;SDS011;60113;48.762;12.302;2024-01-30T04:10:42;201.57;;;62.63;;
72209;SDS011;60113;48.762;12.302;2024-01-30T04:13:08;198.35;;;61.90;;
72209;SDS011;60113;48.762;12.302;2024-01-30T04:15:34;199.93;;;59.55;;
72209;SDS011;60113;48.762;12.302;2024-01-30T04:18:00;190.30;;;58.53;;
72209;SDS011;60113;48.762;12.302;2024-01-30T04:20:25;185.38;;;57.75;;
72209;SDS011;60113;48.762;12.302;2024-01-30T04:22:51;179.27;;;55.40;;
72209;SDS011;60113;48.762;12.302;2024-01-30T04:25:16;168.75;;;54.42;;
72209;SDS011;60113;48.762;12.302;2024-01-30T04:27:43;180.68;;;55.10;;
72209;SDS011;60113;48.762;12.302;2024-01-30T04:30:08;174.98;;;55.95;;
72209;SDS011;60113;48.762;12.302;2024-01-30T04:32:35;174.52;;;53.15;;
72209;SDS011;60113;48.762;12.302;2024-01-30T04:35:01;195.45;;;57.63;;
72209;SDS011;60113;48.762;12.302;2024-01-30T04:37:27;183.65;;;56.72;;
72209;SDS011;60113;48.762;12.302;2024-01-30T04:39:52;200.75;;;57.47;;
72209;SDS011;60113;48.762;12.302;2024-01-30T04:42:18;191.57;;;58.15;;
72209;SDS011;60113;48.762;12.302;2024-01-30T04:44:45;183.98;;;57.45;;
72209;SDS011;60113;48.762;12.302;2024-01-30T04:47:11;196.40;;;58.00;;
72209;SDS011;60113;48.762;12.302;2024-01-30T04:49:39;186.95;;;56.92;;
72209;SDS011;60113;48.762;12.302;2024-01-30T04:52:05;201.95;;;62.28;;
72209;SDS011;60113;48.762;12.302;2024-01-30T04:54:34;204.32;;;61.50;;
72209;SDS011;60113;48.762;12.302;2024-01-30T04:57:01;195.93;;;57.75;;
72209;SDS011;60113;48.762;12.302;2024-01-30T04:59:27;176.52;;;55.25;;
72209;SDS011;60113;48.762;12.302;2024-01-30T05:01:53;184.82;;;57.42;;
72209;SDS011;60113;48.762;12.302;2024-01-30T05:04:19;193.02;;;59.28;;
72209;SDS011;60113;48.762;12.302;2024-01-30T05:06:45;180.10;;;57.53;;
72209;SDS011;60113;48.762;12.302;2024-01-30T05:09:11;180.23;;;59.42;;
72209;SDS011;60113;48.762;12.302;2024-01-30T05:11:37;186.02;;;57.95;;
72209;SDS011;60113;48.762;12.302;2024-01-30T05:14:04;189.40;;;56.92;;
72209;SDS011;60113;48.762;12.302;2024-01-30T05:16:31;216.18;;;67.13;;
72209;SDS011;60113;48.762;12.302;2024-01-30T05:18:58;216.95;;;66.35;;
72209;SDS011;60113;48.762;12.302;2024-01-30T05:21:25;245.50;;;73.25;;
72209;SDS011;60113;48.762;12.302;2024-01-30T05:23:51;229.68;;;68.03;;
72209;SDS011;60113;48.762;12.302;2024-01-30T05:26:17;239.48;;;72.93;;
72209;SDS011;60113;48.762;12.302;2024-01-30T05:28:43;241.35;;;72.32;;
72209;SDS011;60113;48.762;12.302;2024-01-30T05:31:11;248.57;;;73.97;;
72209;SDS011;60113;48.762;12.302;2024-01-30T05:33:38;246.13;;;77.70;;
72209;SDS011;60113;48.762;12.302;2024-01-30T05:36:04;261.25;;;76.90;;
72209;SDS011;60113;48.762;12.302;2024-01-30T05:38:31;256.05;;;79.30;;
72209;SDS011;60113;48.762;12.302;2024-01-30T05:40:57;261.17;;;75.97;;
72209;SDS011;60113;48.762;12.302;2024-01-30T05:43:24;242.38;;;75.53;;
72209;SDS011;60113;48.762;12.302;2024-01-30T05:45:50;251.43;;;75.28;;
72209;SDS011;60113;48.762;12.302;2024-01-30T05:48:17;279.27;;;78.63;;
72209;SDS011;60113;48.762;12.302;2024-01-30T05:50:43;248.13;;;76.68;;
72209;SDS011;60113;48.762;12.302;2024-01-30T05:53:08;262.15;;;77.63;;
72209;SDS011;60113;48.762;12.302;2024-01-30T05:55:34;270.92;;;77.82;;
72209;SDS011;60113;48.762;12.302;2024-01-30T05:58:02;276.63;;;76.05;;
72209;SDS011;60113;48.762;12.302;2024-01-30T06:00:30;254.52;;;77.65;;
72209;SDS011;60113;48.762;12.302;2024-01-30T06:02:55;255.50;;;76.10;;
72209;SDS011;60113;48.762;12.302;2024-01-30T06:05:22;258.80;;;77.70;;
72209;SDS011;60113;48.762;12.302;2024-01-30T06:07:47;261.75;;;79.45;;
72209;SDS011;60113;48.762;12.302;2024-01-30T06:10:13;244.52;;;73.35;;
72209;SDS011;60113;48.762;12.302;2024-01-30T06:12:39;237.32;;;74.07;;
72209;SDS011;60113;48.762;12.302;2024-01-30T06:15:05;229.60;;;73.63;;
72209;SDS011;60113;48.762;12.302;2024-01-30T06:17:31;220.60;;;69.47;;
72209;SDS011;60113;48.762;12.302;2024-01-30T06:19:57;242.07;;;75.30;;
72209;SDS011;60113;48.762;12.302;2024-01-30T06:22:23;227.23;;;73.13;;
72209;SDS011;60113;48.762;12.302;2024-01-30T06:24:50;213.88;;;74.75;;
72209;SDS011;60113;48.762;12.302;2024-01-30T06:27:16;212.25;;;69.80;;
72209;SDS011;60113;48.762;12.302;2024-01-30T06:29:43;209.98;;;70.38;;
72209;SDS011;60113;48.762;12.302;2024-01-30T06:32:09;203.20;;;70.97;;
72209;SDS011;60113;48.762;12.302;2024-01-30T06:34:36;226.32;;;78.68;;
72209;SDS011;60113;48.762;12.302;2024-01-30T06:37:04;240.63;;;82.50;;
72209;SDS011;60113;48.762;12.302;2024-01-30T06:39:30;239.20;;;85.60;;
72209;SDS011;60113;48.762;12.302;2024-01-30T06:41:55;228.55;;;80.50;;
72209;SDS011;60113;48.762;12.302;2024-01-30T06:44:23;270.80;;;89.82;;
72209;SDS011;60113;48.762;12.302;2024-01-30T06:46:48;264.67;;;85.35;;
72209;SDS011;60113;48.762;12.302;2024-01-30T06:49:13;261.10;;;89.88;;
72209;SDS011;60113;48.762;12.302;2024-01-30T06:51:39;259.55;;;89.22;;
72209;SDS011;60113;48.762;12.302;2024-01-30T06:54:05;273.67;;;93.00;;
72209;SDS011;60113;48.762;12.302;2024-01-30T06:56:31;274.30;;;87.32;;
72209;SDS011;60113;48.762;12.302;2024-01-30T06:58:56;291.00;;;90.25;;
72209;SDS011;60113;48.762;12.302;2024-01-30T07:01:27;276.35;;;87.70;;
72209;SDS011;60113;48.762;12.302;2024-01-30T07:03:55;261.50;;;90.07;;
72209;SDS011;60113;48.762;12.302;2024-01-30T07:06:21;246.57;;;84.78;;
72209;SDS011;60113;48.762;12.302;2024-01-30T07:08:47;252.82;;;85.82;;
72209;SDS011;60113;48.762;12.302;2024-01-30T07:11:20;240.93;;;85.60;;
72209;SDS011;60113;48.762;12.302;2024-01-30T07:13:51;234.20;;;83.75;;
72209;SDS011;60113;48.762;12.302;2024-01-30T07:16:17;244.70;;;83.13;;
72209;SDS011;60113;48.762;12.302;2024-01-30T07:18:43;230.63;;;81.43;;
72209;SDS011;60113;48.762;12.302;2024-01-30T07:21:09;254.25;;;82.10;;
72209;SDS011;60113;48.762;12.302;2024-01-30T07:23:34;232.65;;;79.88;;
72209;SDS011;60113;48.762;12.302;2024-01-30T07:26:01;253.30;;;82.95;;
72209;SDS011;60113;48.762;12.302;2024-01-30T07:28:28;224.63;;;80.75;;
72209;SDS011;60113;48.762;12.302;2024-01-30T07:30:53;227.77;;;82.97;;
72209;SDS011;60113;48.762;12.302;2024-01-30T07:33:19;235.57;;;80.05;;
72209;SDS011;60113;48.762;12.302;2024-01-30T07:35:45;263.67;;;86.82;;
72209;SDS011;60113;48.762;12.302;2024-01-30T07:38:11;253.40;;;86.63;;
72209;SDS011;60113;48.762;12.302;2024-01-30T07:40:37;258.73;;;86.22;;
72209;SDS011;60113;48.762;12.302;2024-01-30T07:43:02;249.93;;;84.00;;
72209;SDS011;60113;48.762;12.302;2024-01-30T07:45:29;256.50;;;84.10;;
72209;SDS011;60113;48.762;12.302;2024-01-30T07:48:00;239.10;;;79.95;;
72209;SDS011;60113;48.762;12.302;2024-01-30T07:50:26;247.00;;;81.85;;
72209;SDS011;60113;48.762;12.302;2024-01-30T07:52:51;258.02;;;88.40;;
72209;SDS011;60113;48.762;12.302;2024-01-30T07:58:25;222.15;;;83.93;;
72209;SDS011;60113;48.762;12.302;2024-01-30T08:00:53;227.52;;;91.15;;
72209;SDS011;60113;48.762;12.302;2024-01-30T08:03:19;234.98;;;91.15;;
72209;SDS011;60113;48.762;12.302;2024-01-30T08:05:44;275.55;;;103.43;;
72209;SDS011;60113;48.762;12.302;2024-01-30T08:08:10;276.70;;;110.78;;
72209;SDS011;60113;48.762;12.302;2024-01-30T08:10:36;314.73;;;118.95;;
72209;SDS011;60113;48.762;12.302;2024-01-30T08:13:02;318.17;;;120.43;;
72209;SDS011;60113;48.762;12.302;2024-01-30T08:15:27;327.38;;;123.60;;
72209;SDS011;60113;48.762;12.302;2024-01-30T08:17:53;362.45;;;160.38;;
72209;SDS011;60113;48.762;12.302;2024-01-30T08:20:23;277.25;;;118.47;;
72209;SDS011;60113;48.762;12.302;2024-01-30T08:22:49;235.20;;;105.95;;
72209;SDS011;60113;48.762;12.302;2024-01-30T08:25:15;241.57;;;125.45;;
72209;SDS011;60113;48.762;12.302;2024-01-30T08:27:41;144.57;;;70.32;;
72209;SDS011;60113;48.762;12.302;2024-01-30T08:30:07;122.95;;;61.92;;
72209;SDS011;60113;48.762;12.302;2024-01-30T08:32:32;104.07;;;53.30;;
72209;SDS011;60113;48.762;12.302;2024-01-30T08:34:58;83.35;;;47.50;;
72209;SDS011;60113;48.762;12.302;2024-01-30T08:37:24;99.18;;;51.58;;
72209;SDS011;60113;48.762;12.302;2024-01-30T08:39:49;80.07;;;43.95;;
72209;SDS011;60113;48.762;12.302;2024-01-30T08:42:15;68.43;;;35.65;;
72209;SDS011;60113;48.762;12.302;2024-01-30T08:44:41;63.45;;;34.22;;
72209;SDS011;60113;48.762;12.302;2024-01-30T08:47:06;56.65;;;31.65;;
72209;SDS011;60113;48.762;12.302;2024-01-30T08:49:32;56.70;;;33.25;;
72209;SDS011;60113;48.762;12.302;2024-01-30T08:51:57;64.70;;;34.03;;
72209;SDS011;60113;48.762;12.302;2024-01-30T08:54:23;65.00;;;34.45;;
72209;SDS011;60113;48.762;12.302;2024-01-30T08:56:49;63.33;;;35.63;;
72209;SDS011;60113;48.762;12.302;2024-01-30T08:59:14;63.78;;;35.80;;
72209;SDS011;60113;48.762;12.302;2024-01-30T09:01:40;71.63;;;35.40;;
72209;SDS011;60113;48.762;12.302;2024-01-30T09:04:05;67.15;;;36.30;;
72209;SDS011;60113;48.762;12.302;2024-01-30T09:06:31;75.22;;;38.15;;
72209;SDS011;60113;48.762;12.302;2024-01-30T09:08:57;79.25;;;43.15;;
72209;SDS011;60113;48.762;12.302;2024-01-30T09:11:23;83.78;;;43.28;;
72209;SDS011;60113;48.762;12.302;2024-01-30T09:13:48;75.55;;;40.85;;
72209;SDS011;60113;48.762;12.302;2024-01-30T09:16:14;78.35;;;41.13;;
72209;SDS011;60113;48.762;12.302;2024-01-30T09:18:41;72.25;;;40.38;;
72209;SDS011;60113;48.762;12.302;2024-01-30T09:21:07;70.75;;;40.92;;
72209;SDS011;60113;48.762;12.302;2024-01-30T09:23:32;72.20;;;40.50;;
72209;SDS011;60113;48.762;12.302;2024-01-30T09:25:58;71.05;;;39.55;;
72209;SDS011;60113;48.762;12.302;2024-01-30T09:28:24;68.03;;;37.75;;
72209;SDS011;60113;48.762;12.302;2024-01-30T09:30:50;66.10;;;37.63;;
72209;SDS011;60113;48.762;12.302;2024-01-30T09:33:15;55.60;;;34.42;;
72209;SDS011;60113;48.762;12.302;2024-01-30T09:35:40;49.65;;;29.73;;
72209;SDS011;60113;48.762;12.302;2024-01-30T09:38:06;50.97;;;30.05;;
72209;SDS011;60113;48.762;12.302;2024-01-30T09:40:32;67.63;;;33.22;;
72209;SDS011;60113;48.762;12.302;2024-01-30T09:42:57;80.32;;;35.78;;
72209;SDS011;60113;48.762;12.302;2024-01-30T09:45:25;93.22;;;37.75;;
72209;SDS011;60113;48.762;12.302;2024-01-30T09:47:51;50.90;;;30.15;;
72209;SDS011;60113;48.762;12.302;2024-01-30T09:50:20;47.45;;;26.33;;
72209;SDS011;60113;48.762;12.302;2024-01-30T09:52:46;41.25;;;25.65;;
72209;SDS011;60113;48.762;12.302;2024-01-30T09:55:13;41.72;;;26.55;;
72209;SDS011;60113;48.762;12.302;2024-01-30T09:57:38;41.58;;;27.13;;
72209;SDS011;60113;48.762;12.302;2024-01-30T10:00:05;43.05;;;25.25;;
72209;SDS011;60113;48.762;12.302;2024-01-30T10:02:34;45.03;;;25.13;;
72209;SDS011;60113;48.762;12.302;2024-01-30T10:05:01;37.08;;;24.08;;
72209;SDS011;60113;48.762;12.302;2024-01-30T10:07:27;40.78;;;24.67;;
72209;SDS011;60113;48.762;12.302;2024-01-30T10:09:53;40.97;;;25.20;;
72209;SDS011;60113;48.762;12.302;2024-01-30T10:12:19;41.38;;;23.42;;
72209;SDS011;60113;48.762;12.302;2024-01-30T10:14:45;36.83;;;23.65;;
72209;SDS011;60113;48.762;12.302;2024-01-30T10:17:11;33.78;;;21.30;;
72209;SDS011;60113;48.762;12.302;2024-01-30T10:19:39;39.55;;;22.02;;
72209;SDS011;60113;48.762;12.302;2024-01-30T10:22:05;40.10;;;22.98;;
72209;SDS011;60113;48.762;12.302;2024-01-30T10:24:32;36.10;;;22.27;;
72209;SDS011;60113;48.762;12.302;2024-01-30T10:26:59;36.15;;;22.52;;
72209;SDS011;60113;48.762;12.302;2024-01-30T10:29:27;42.50;;;23.63;;
72209;SDS011;60113;48.762;12.302;2024-01-30T10:32:02;38.78;;;24.58;;
72209;SDS011;60113;48.762;12.302;2024-01-30T10:34:29;36.60;;;23.70;;
72209;SDS011;60113;48.762;12.302;2024-01-30T10:37:08;40.00;;;24.23;;
72209;SDS011;60113;48.762;12.302;2024-01-30T10:39:45;40.72;;;25.13;;
72209;SDS011;60113;48.762;12.302;2024-01-30T10:42:15;43.08;;;26.30;;
72209;SDS011;60113;48.762;12.302;2024-01-30T10:45:00;39.28;;;24.77;;
72209;SDS011;60113;48.762;12.302;2024-01-30T10:47:36;38.38;;;23.95;;
72209;SDS011;60113;48.762;12.302;2024-01-30T10:50:03;43.05;;;24.88;;
72209;SDS011;60113;48.762;12.302;2024-01-30T10:52:29;38.88;;;24.05;;
72209;SDS011;60113;48.762;12.302;2024-01-30T10:54:56;45.80;;;23.88;;
72209;SDS011;60113;48.762;12.302;2024-01-30T10:57:25;37.72;;;24.10;;
72209;SDS011;60113;48.762;12.302;2024-01-30T11:00:01;35.35;;;22.42;;
72209;SDS011;60113;48.762;12.302;2024-01-30T11:02:36;31.58;;;21.10;;
72209;SDS011;60113;48.762;12.302;2024-01-30T11:05:05;32.20;;;21.45;;
72209;SDS011;60113;48.762;12.302;2024-01-30T11:07:31;39.13;;;23.45;;
72209;SDS011;60113;48.762;12.302;2024-01-30T11:12:23;32.85;;;21.42;;
72209;SDS011;60113;48.762;12.302;2024-01-30T11:14:50;33.22;;;21.90;;
72209;SDS011;60113;48.762;12.302;2024-01-30T11:17:28;36.47;;;22.17;;
72209;SDS011;60113;48.762;12.302;2024-01-30T11:19:54;40.45;;;22.45;;
72209;SDS011;60113;48.762;12.302;2024-01-30T11:22:22;31.92;;;21.95;;
72209;SDS011;60113;48.762;12.302;2024-01-30T11:24:50;34.55;;;21.98;;
72209;SDS011;60113;48.762;12.302;2024-01-30T11:27:16;35.63;;;23.20;;
72209;SDS011;60113;48.762;12.302;2024-01-30T11:29:43;34.88;;;23.25;;
72209;SDS011;60113;48.762;12.302;2024-01-30T11:34:49;44.60;;;21.92;;
72209;SDS011;60113;48.762;12.302;2024-01-30T11:37:14;34.17;;;21.70;;
72209;SDS011;60113;48.762;12.302;2024-01-30T11:39:41;31.13;;;21.80;;
72209;SDS011;60113;48.762;12.302;2024-01-30T11:42:08;33.95;;;21.83;;
72209;SDS011;60113;48.762;12.302;2024-01-30T11:44:34;31.38;;;20.98;;
72209;SDS011;60113;48.762;12.302;2024-01-30T11:46:59;30.58;;;20.35;;
72209;SDS011;60113;48.762;12.302;2024-01-30T11:49:29;33.22;;;21.77;;
72209;SDS011;60113;48.762;12.302;2024-01-30T11:51:56;29.95;;;20.95;;
72209;SDS011;60113;48.762;12.302;2024-01-30T11:54:22;32.17;;;19.58;;
72209;SDS011;60113;48.762;12.302;2024-01-30T11:56:48;35.67;;;21.75;;
72209;SDS011;60113;48.762;12.302;2024-01-30T11:59:15;33.05;;;21.95;;
72209;SDS011;60113;48.762;12.302;2024-01-30T12:01:41;31.63;;;20.92;;
72209;SDS011;60113;48.762;12.302;2024-01-30T12:04:07;32.92;;;20.52;;
72209;SDS011;60113;48.762;12.302;2024-01-30T12:06:36;31.77;;;20.90;;
72209;SDS011;60113;48.762;12.302;2024-01-30T12:09:06;34.40;;;22.42;;
72209;SDS011;60113;48.762;12.302;2024-01-30T12:11:45;41.70;;;27.88;;
72209;SDS011;60113;48.762;12.302;2024-01-30T12:14:14;32.47;;;21.95;;
72209;SDS011;60113;48.762;12.302;2024-01-30T12:16:47;32.85;;;20.75;;
72209;SDS011;60113;48.762;12.302;2024-01-30T12:19:21;22.65;;;14.38;;
72209;SDS011;60113;48.762;12.302;2024-01-30T12:21:53;35.78;;;22.85;;
72209;SDS011;60113;48.762;12.302;2024-01-30T12:24:29;48.20;;;28.33;;
72209;SDS011;60113;48.762;12.302;2024-01-30T12:26:58;61.67;;;31.35;;
72209;SDS011;60113;48.762;12.302;2024-01-30T12:29:24;43.10;;;26.15;;
72209;SDS011;60113;48.762;12.302;2024-01-30T12:31:53;34.40;;;21.58;;
72209;SDS011;60113;48.762;12.302;2024-01-30T12:34:20;33.92;;;22.17;;
72209;SDS011;60113;48.762;12.302;2024-01-30T12:36:47;38.00;;;19.50;;
72209;SDS011;60113;48.762;12.302;2024-01-30T12:39:17;30.90;;;20.77;;
72209;SDS011;60113;48.762;12.302;2024-01-30T12:41:43;30.60;;;21.30;;
72209;SDS011;60113;48.762;12.302;2024-01-30T12:44:13;31.70;;;19.63;;
72209;SDS011;60113;48.762;12.302;2024-01-30T12:46:41;33.95;;;21.70;;
72209;SDS011;60113;48.762;12.302;2024-01-30T12:49:07;33.55;;;20.70;;
72209;SDS011;60113;48.762;12.302;2024-01-30T12:51:34;30.75;;;19.58;;
72209;SDS011;60113;48.762;12.302;2024-01-30T12:54:04;26.17;;;18.35;;
72209;SDS011;60113;48.762;12.302;2024-01-30T12:56:30;29.83;;;20.25;;
72209;SDS011;60113;48.762;12.302;2024-01-30T12:58:57;30.20;;;19.40;;
72209;SDS011;60113;48.762;12.302;2024-01-30T13:01:23;36.65;;;21.75;;
72209;SDS011;60113;48.762;12.302;2024-01-30T13:03:49;37.92;;;21.17;;
72209;SDS011;60113;48.762;12.302;2024-01-30T13:06:18;36.63;;;21.48;;
72209;SDS011;60113;48.762;12.302;2024-01-30T13:08:48;37.25;;;21.42;;
72209;SDS011;60113;48.762;12.302;2024-01-30T13:11:19;35.42;;;22.45;;
72209;SDS011;60113;48.762;12.302;2024-01-30T13:13:46;33.40;;;20.88;;
72209;SDS011;60113;48.762;12.302;2024-01-30T13:16:12;35.65;;;22.02;;
72209;SDS011;60113;48.762;12.302;2024-01-30T13:18:37;31.85;;;18.35;;
72209;SDS011;60113;48.762;12.302;2024-01-30T13:21:06;36.78;;;22.70;;
72209;SDS011;60113;48.762;12.302;2024-01-30T13:23:31;33.60;;;21.90;;
72209;SDS011;60113;48.762;12.302;2024-01-30T13:25:57;40.90;;;23.85;;
72209;SDS011;60113;48.762;12.302;2024-01-30T13:28:24;34.78;;;22.10;;
72209;SDS011;60113;48.762;12.302;2024-01-30T13:30:50;33.25;;;21.63;;
72209;SDS011;60113;48.762;12.302;2024-01-30T13:33:17;35.92;;;20.63;;
72209;SDS011;60113;48.762;12.302;2024-01-30T13:35:44;40.05;;;24.63;;
72209;SDS011;60113;48.762;12.302;2024-01-30T13:38:09;40.55;;;24.63;;
72209;SDS011;60113;48.762;12.302;2024-01-30T13:40:35;39.50;;;23.85;;
72209;SDS011;60113;48.762;12.302;2024-01-30T13:43:00;39.28;;;21.92;;
72209;SDS011;60113;48.762;12.302;2024-01-30T13:45:27;38.17;;;21.83;;
72209;SDS011;60113;48.762;12.302;2024-01-30T13:47:53;32.53;;;17.90;;
72209;SDS011;60113;48.762;12.302;2024-01-30T13:50:18;24.70;;;12.57;;
72209;SDS011;60113;48.762;12.302;2024-01-30T13:52:46;33.58;;;20.45;;
72209;SDS011;60113;48.762;12.302;2024-01-30T13:55:12;34.28;;;21.23;;
72209;SDS011;60113;48.762;12.302;2024-01-30T13:57:39;38.50;;;22.63;;
72209;SDS011;60113;48.762;12.302;2024-01-30T14:00:07;38.03;;;21.75;;
72209;SDS011;60113;48.762;12.302;2024-01-30T14:02:34;34.15;;;21.67;;
72209;SDS011;60113;48.762;12.302;2024-01-30T14:05:02;33.47;;;21.42;;
72209;SDS011;60113;48.762;12.302;2024-01-30T14:07:29;33.03;;;20.77;;